createdAt,value
2023-02-12T00:01:09.741Z,-0.90
2023-02-12T00:03:39.565Z,-0.97
2023-02-12T00:06:08.423Z,-0.82
2023-02-12T00:08:37.236Z,-0.77
2023-02-12T00:11:10.443Z,-0.63
2023-02-12T00:13:38.883Z,-0.85
2023-02-12T00:16:08.664Z,-0.68
2023-02-12T00:18:37.141Z,-0.79
2023-02-12T00:21:08.809Z,-0.80
2023-02-12T00:23:37.693Z,-0.82
2023-02-12T00:26:07.641Z,-0.86
2023-02-12T00:28:35.691Z,-0.99
2023-02-12T00:31:08.082Z,-0.89
2023-02-12T00:33:36.245Z,-0.75
2023-02-12T00:36:04.920Z,-1.10
2023-02-12T00:38:34.677Z,-0.92
2023-02-12T00:41:02.916Z,-0.93
2023-02-12T00:43:30.980Z,-1.05
2023-02-12T00:45:59.293Z,-1.24
2023-02-12T00:48:27.407Z,-1.09
2023-02-12T00:50:55.399Z,-1.10
2023-02-12T00:53:23.502Z,-0.98
2023-02-12T00:55:53.035Z,-0.72
2023-02-12T00:58:21.396Z,-0.51
2023-02-12T01:00:49.460Z,-0.55
2023-02-12T01:03:17.745Z,-0.67
2023-02-12T01:05:45.717Z,-0.56
2023-02-12T01:08:14.977Z,-0.46
2023-02-12T01:10:44.308Z,-0.37
2023-02-12T01:13:14.752Z,-0.20
2023-02-12T01:15:43.594Z,-0.21
2023-02-12T01:18:11.616Z,0.03
2023-02-12T01:20:41.637Z,0.11
2023-02-12T01:23:09.639Z,-0.07
2023-02-12T01:25:39.421Z,0.43
2023-02-12T01:28:07.382Z,0.48
2023-02-12T01:30:36.698Z,0.60
2023-02-12T01:33:04.802Z,0.60
2023-02-12T01:35:32.754Z,0.71
2023-02-12T01:38:01.005Z,0.80
2023-02-12T01:40:29.091Z,0.90
2023-02-12T01:42:57.060Z,0.94
2023-02-12T01:45:47.229Z,1.02
2023-02-12T01:48:18.164Z,1.01
2023-02-12T01:50:49.224Z,1.11
2023-02-12T01:53:21.021Z,1.20
2023-02-12T01:55:52.090Z,1.11
2023-02-12T01:58:20.861Z,1.21
2023-02-12T02:00:50.265Z,1.20
2023-02-12T02:03:18.417Z,1.22
2023-02-12T02:05:55.855Z,1.16
2023-02-12T02:08:24.461Z,1.18
2023-02-12T02:10:52.472Z,1.09
2023-02-12T02:13:38.099Z,1.03
2023-02-12T02:16:15.877Z,0.74
2023-02-12T02:18:49.842Z,0.59
2023-02-12T02:21:54.842Z,0.76
2023-02-12T02:24:54.908Z,0.69
2023-02-12T02:27:32.192Z,0.71
2023-02-12T02:30:35.365Z,0.84
2023-02-12T02:33:16.632Z,0.69
2023-02-12T02:35:53.806Z,0.84
2023-02-12T02:38:32.777Z,0.85
2023-02-12T02:41:06.108Z,0.71
2023-02-12T02:43:39.515Z,0.88
2023-02-12T02:46:13.185Z,0.94
2023-02-12T02:48:47.783Z,0.99
2023-02-12T02:51:21.765Z,1.01
2023-02-12T02:53:56.212Z,1.15
2023-02-12T02:56:27.552Z,1.06
2023-02-12T02:59:01.249Z,1.20
2023-02-12T03:01:36.552Z,1.25
2023-02-12T03:04:11.024Z,1.31
2023-02-12T03:06:45.670Z,1.32
2023-02-12T03:09:21.133Z,1.31
2023-02-12T03:11:50.917Z,1.10
2023-02-12T03:14:23.662Z,1.31
2023-02-12T03:16:59.123Z,1.26
2023-02-12T03:19:32.757Z,1.22
2023-02-12T03:22:05.730Z,1.12
2023-02-12T03:24:37.772Z,1.17
2023-02-12T03:27:11.111Z,1.02
2023-02-12T03:29:39.385Z,0.99
2023-02-12T03:32:21.793Z,0.73
2023-02-12T03:35:00.820Z,0.55
2023-02-12T03:37:34.142Z,0.46
2023-02-12T03:40:11.981Z,0.45
2023-02-12T03:42:48.524Z,0.28
2023-02-12T03:45:30.126Z,0.38
2023-02-12T03:48:05.990Z,0.31
2023-02-12T03:50:44.223Z,0.39
2023-02-12T03:53:12.259Z,0.29
2023-02-12T03:55:44.820Z,0.44
2023-02-12T03:58:20.596Z,0.43
2023-02-12T04:00:49.247Z,0.56
2023-02-12T04:03:17.385Z,0.59
2023-02-12T04:05:46.753Z,0.72
2023-02-12T04:08:15.072Z,0.84
2023-02-12T04:10:54.271Z,0.95
2023-02-12T04:13:28.314Z,1.07
2023-02-12T04:16:08.869Z,1.14
2023-02-12T04:18:42.633Z,1.12
2023-02-12T04:21:20.046Z,1.13
2023-02-12T04:24:03.870Z,1.14
2023-02-12T04:26:41.062Z,1.22
2023-02-12T04:29:18.356Z,1.41
2023-02-12T04:31:51.188Z,1.49
2023-02-12T04:34:24.889Z,1.49
2023-02-12T04:37:00.363Z,1.53
2023-02-12T04:39:31.612Z,1.62
2023-02-12T04:42:00.831Z,1.78
2023-02-12T04:44:30.991Z,1.64
2023-02-12T04:46:59.943Z,1.69
2023-02-12T04:49:28.178Z,1.62
2023-02-12T04:51:57.586Z,1.75
2023-02-12T04:54:26.132Z,1.80
2023-02-12T04:56:54.307Z,1.78
2023-02-12T04:59:22.517Z,1.84
2023-02-12T05:01:50.753Z,1.76
2023-02-12T05:04:19.548Z,1.65
2023-02-12T05:06:48.044Z,1.71
2023-02-12T05:09:20.524Z,1.70
2023-02-12T05:11:48.513Z,1.55
2023-02-12T05:14:16.863Z,1.58
2023-02-12T05:16:45.003Z,1.65
2023-02-12T05:19:13.378Z,1.72
2023-02-12T05:21:41.425Z,1.78
2023-02-12T05:24:09.729Z,1.65
2023-02-12T05:26:39.121Z,1.57
2023-02-12T05:29:07.143Z,1.51
2023-02-12T05:31:35.470Z,1.43
2023-02-12T05:34:03.700Z,1.52
2023-02-12T05:36:31.690Z,1.50
2023-02-12T05:39:00.754Z,1.50
2023-02-12T05:41:29.761Z,1.38
2023-02-12T05:43:59.169Z,1.57
2023-02-12T05:46:27.224Z,1.47
2023-02-12T05:48:55.226Z,1.67
2023-02-12T05:51:25.774Z,1.79
2023-02-12T05:53:57.631Z,1.78
2023-02-12T05:56:27.532Z,1.84
2023-02-12T05:58:59.868Z,1.94
2023-02-12T06:01:29.745Z,1.99
2023-02-12T06:03:59.327Z,2.08
2023-02-12T06:06:27.622Z,2.20
2023-02-12T06:08:57.101Z,2.16
2023-02-12T06:11:25.328Z,2.26
2023-02-12T06:13:53.328Z,2.25
2023-02-12T06:16:25.258Z,2.38
2023-02-12T06:18:54.262Z,2.37
2023-02-12T06:21:23.857Z,2.52
2023-02-12T06:23:52.721Z,2.49
2023-02-12T06:26:21.426Z,2.60
2023-02-12T06:28:49.446Z,2.70
2023-02-12T06:31:21.326Z,2.84
2023-02-12T06:33:51.509Z,2.66
2023-02-12T06:36:20.214Z,2.92
2023-02-12T06:38:49.015Z,2.98
2023-02-12T06:41:17.323Z,3.07
2023-02-12T06:43:45.392Z,3.10
2023-02-12T06:46:14.102Z,3.21
2023-02-12T06:48:42.414Z,3.07
2023-02-12T06:51:13.769Z,3.13
2023-02-12T06:53:42.329Z,3.50
2023-02-12T06:56:13.217Z,3.57
2023-02-12T06:58:42.290Z,3.61
2023-02-12T07:01:13.746Z,3.51
2023-02-12T07:03:42.701Z,3.54
2023-02-12T07:06:12.480Z,3.55
2023-02-12T07:08:40.538Z,3.80
2023-02-12T07:11:08.821Z,3.92
2023-02-12T07:13:37.300Z,3.78
2023-02-12T07:16:06.904Z,3.95
2023-02-12T07:18:35.390Z,4.05
2023-02-12T07:21:03.791Z,4.00
2023-02-12T07:23:33.718Z,3.90
2023-02-12T07:26:03.149Z,4.04
2023-02-12T07:28:33.674Z,4.03
2023-02-12T07:31:02.107Z,4.03
2023-02-12T07:33:30.058Z,3.99
2023-02-12T07:36:01.574Z,4.16
2023-02-12T07:38:30.037Z,4.18
2023-02-12T07:41:10.518Z,4.30
2023-02-12T07:43:39.187Z,4.50
2023-02-12T07:46:09.227Z,4.40
2023-02-12T07:48:37.203Z,4.62
2023-02-12T07:51:07.273Z,4.33
2023-02-12T07:53:35.540Z,4.70
2023-02-12T07:56:10.180Z,4.80
2023-02-12T07:58:39.088Z,4.76
2023-02-12T08:01:18.105Z,4.82
2023-02-12T08:03:47.229Z,4.99
2023-02-12T08:06:18.183Z,4.83
2023-02-12T08:08:46.421Z,4.87
2023-02-12T08:11:16.701Z,4.72
2023-02-12T08:13:44.831Z,5.11
2023-02-12T08:16:15.877Z,5.13
2023-02-12T08:18:44.337Z,5.20
2023-02-12T08:21:14.061Z,5.27
2023-02-12T08:23:42.773Z,5.27
2023-02-12T08:26:14.637Z,5.30
2023-02-12T08:28:45.434Z,5.45
2023-02-12T08:31:15.871Z,5.47
2023-02-12T08:33:45.286Z,5.25
2023-02-12T08:36:15.825Z,5.44
2023-02-12T08:38:44.813Z,5.41
2023-02-12T08:41:14.735Z,5.39
2023-02-12T08:43:46.065Z,5.58
2023-02-12T08:46:16.071Z,5.67
2023-02-12T08:48:44.932Z,5.68
2023-02-12T08:51:15.705Z,5.84
2023-02-12T08:53:45.381Z,5.89
2023-02-12T08:56:14.875Z,5.96
2023-02-12T08:58:44.851Z,5.90
2023-02-12T09:01:16.263Z,5.83
2023-02-12T09:03:44.823Z,5.68
2023-02-12T09:06:13.298Z,5.71
2023-02-12T09:08:42.186Z,5.28
2023-02-12T09:11:12.689Z,5.68
2023-02-12T09:13:41.194Z,5.45
2023-02-12T09:16:10.640Z,5.63
2023-02-12T09:18:38.927Z,5.81
2023-02-12T09:21:10.776Z,5.98
2023-02-12T09:23:40.585Z,5.85
2023-02-12T09:26:10.050Z,5.97
2023-02-12T09:28:38.553Z,6.43
2023-02-12T09:31:07.573Z,6.45
2023-02-12T09:33:36.973Z,6.25
2023-02-12T09:36:05.998Z,6.53
2023-02-12T09:38:34.227Z,6.67
2023-02-12T09:41:28.265Z,6.62
2023-02-12T09:44:03.651Z,6.54
2023-02-12T09:46:34.101Z,6.86
2023-02-12T09:49:10.236Z,6.63
2023-02-12T09:51:40.158Z,6.17
2023-02-12T09:54:13.720Z,5.70
2023-02-12T09:56:45.612Z,6.16
2023-02-12T09:59:19.497Z,5.99
2023-02-12T10:01:47.648Z,5.77
2023-02-12T10:04:17.190Z,6.05
2023-02-12T10:06:52.886Z,6.54
2023-02-12T10:09:37.808Z,6.98
2023-02-12T10:12:13.897Z,7.17
2023-02-12T10:15:05.346Z,7.68
2023-02-12T10:17:42.213Z,8.17
2023-02-12T10:20:41.065Z,8.37
2023-02-12T10:23:22.621Z,7.88
2023-02-12T10:25:54.585Z,8.09
2023-02-12T10:28:27.991Z,8.39
2023-02-12T10:31:00.029Z,8.44
2023-02-12T10:33:31.466Z,8.66
2023-02-12T10:36:08.086Z,8.83
2023-02-12T10:38:40.903Z,8.80
2023-02-12T10:41:11.171Z,8.93
2023-02-12T10:43:39.304Z,8.15
2023-02-12T10:46:07.417Z,8.30
2023-02-12T10:48:41.215Z,7.88
2023-02-12T10:51:31.110Z,8.11
2023-02-12T10:54:20.013Z,8.64
2023-02-12T10:56:47.893Z,8.69
2023-02-12T10:59:24.258Z,8.81
2023-02-12T11:01:52.748Z,8.49
2023-02-12T11:04:25.517Z,8.50
2023-02-12T11:07:03.603Z,8.18
2023-02-12T11:09:36.297Z,8.11
2023-02-12T11:12:05.082Z,8.27
2023-02-12T11:14:33.178Z,8.23
2023-02-12T11:17:02.773Z,7.95
2023-02-12T11:19:34.434Z,8.16
2023-02-12T11:22:10.885Z,8.24
2023-02-12T11:24:39.655Z,8.31
2023-02-12T11:27:22.930Z,8.29
2023-02-12T11:30:18.652Z,8.32
2023-02-12T11:32:46.776Z,8.45
2023-02-12T11:35:18.655Z,8.54
2023-02-12T11:37:48.552Z,8.48
2023-02-12T11:40:24.663Z,8.74
2023-02-12T11:42:56.315Z,8.47
2023-02-12T11:45:29.661Z,8.46
2023-02-12T11:47:58.248Z,8.52
2023-02-12T11:50:30.948Z,8.60
2023-02-12T11:53:03.234Z,8.67
2023-02-12T11:55:34.818Z,8.72
2023-02-12T11:58:05.868Z,8.64
2023-02-12T12:00:38.644Z,8.71
2023-02-12T12:03:14.357Z,8.64
2023-02-12T12:05:47.801Z,8.48
2023-02-12T12:08:25.268Z,8.08
2023-02-12T12:10:59.806Z,8.55
2023-02-12T12:13:34.833Z,8.70
2023-02-12T12:16:29.302Z,9.34
2023-02-12T12:19:18.767Z,9.55
2023-02-12T12:21:53.464Z,9.61
2023-02-12T12:24:28.826Z,9.71
2023-02-12T12:27:03.350Z,9.58
2023-02-12T12:29:48.785Z,9.51
2023-02-12T12:32:19.349Z,9.45
2023-02-12T12:34:48.302Z,9.14
2023-02-12T12:37:26.172Z,9.16
2023-02-12T12:40:09.084Z,9.04
2023-02-12T12:43:05.109Z,9.06
2023-02-12T12:46:05.066Z,9.07
2023-02-12T12:48:49.281Z,8.99
2023-02-12T12:51:27.963Z,9.11
2023-02-12T12:54:10.814Z,8.99
2023-02-12T12:56:54.417Z,9.02
2023-02-12T12:59:48.621Z,8.92
2023-02-12T13:02:51.693Z,8.84
2023-02-12T13:05:31.737Z,8.65
2023-02-12T13:08:07.429Z,8.62
2023-02-12T13:10:43.085Z,8.84
2023-02-12T13:13:23.249Z,8.83
2023-02-12T13:16:00.895Z,8.79
2023-02-12T13:18:42.390Z,8.68
2023-02-12T13:21:19.848Z,8.92
2023-02-12T13:23:55.749Z,8.92
2023-02-12T13:26:30.757Z,8.85
2023-02-12T13:29:05.607Z,8.60
2023-02-12T13:31:42.232Z,8.68
2023-02-12T13:34:16.316Z,8.63
2023-02-12T13:36:45.168Z,8.59
2023-02-12T13:39:23.869Z,8.66
2023-02-12T13:42:01.190Z,8.25
2023-02-12T13:44:36.704Z,8.34
2023-02-12T13:47:13.506Z,8.47
2023-02-12T13:49:51.563Z,8.50
2023-02-12T13:52:30.412Z,8.44
2023-02-12T13:55:15.774Z,8.32
2023-02-12T13:57:43.833Z,8.34
2023-02-12T14:00:41.508Z,8.45
2023-02-12T14:03:11.222Z,8.46
2023-02-12T14:05:39.418Z,8.37
2023-02-12T14:08:08.364Z,8.35
2023-02-12T14:10:38.880Z,7.94
2023-02-12T14:13:21.080Z,8.13
2023-02-12T14:15:52.500Z,7.78
2023-02-12T14:18:28.641Z,7.52
2023-02-12T14:21:43.299Z,7.58
2023-02-12T14:24:49.268Z,7.60
2023-02-12T14:27:35.933Z,7.34
2023-02-12T14:30:25.031Z,7.17
2023-02-12T14:33:28.150Z,7.28
2023-02-12T14:36:17.813Z,7.31
2023-02-12T14:39:01.843Z,7.26
2023-02-12T14:41:44.242Z,7.34
2023-02-12T14:44:46.774Z,7.26
2023-02-12T14:47:38.043Z,7.21
2023-02-12T14:50:17.141Z,7.09
2023-02-12T14:52:52.288Z,7.07
2023-02-12T14:55:24.989Z,7.02
2023-02-12T14:57:59.758Z,6.86
2023-02-12T15:00:32.347Z,6.87
2023-02-12T15:03:08.700Z,6.98
2023-02-12T15:05:43.078Z,6.82
2023-02-12T15:08:28.298Z,6.76
2023-02-12T15:11:00.789Z,6.51
2023-02-12T15:13:40.492Z,6.77
2023-02-12T15:16:14.727Z,6.59
2023-02-12T15:18:51.793Z,6.76
2023-02-12T15:21:24.407Z,6.75
2023-02-12T15:24:04.140Z,6.75
2023-02-12T15:26:35.805Z,6.51
2023-02-12T15:29:05.087Z,6.69
2023-02-12T15:31:34.510Z,6.70
2023-02-12T15:34:05.882Z,6.60
2023-02-12T15:36:38.096Z,6.42
2023-02-12T15:39:09.655Z,6.26
2023-02-12T15:41:40.415Z,6.44
2023-02-12T15:44:23.437Z,6.40
2023-02-12T15:49:48.798Z,6.26
2023-02-12T15:52:20.812Z,6.33
2023-02-12T15:54:50.416Z,6.31
2023-02-12T15:57:23.452Z,6.26
2023-02-12T15:59:53.457Z,6.19
2023-02-12T16:02:26.066Z,6.33
2023-02-12T16:04:54.323Z,6.40
2023-02-12T16:07:25.417Z,6.38
2023-02-12T16:09:54.914Z,6.31
2023-02-12T16:12:25.705Z,6.17
2023-02-12T16:14:56.457Z,6.11
2023-02-12T16:17:29.837Z,6.22
2023-02-12T16:20:00.224Z,6.19
2023-02-12T16:22:33.695Z,6.19
2023-02-12T16:25:02.518Z,6.17
2023-02-12T16:27:33.182Z,6.10
2023-02-12T16:30:03.229Z,6.11
2023-02-12T16:32:36.325Z,5.80
2023-02-12T16:35:08.109Z,5.82
2023-02-12T16:37:49.564Z,5.99
2023-02-12T16:40:27.260Z,5.85
2023-02-12T16:43:01.914Z,5.91
2023-02-12T16:45:38.721Z,5.99
2023-02-12T16:48:25.597Z,6.02
2023-02-12T16:50:56.342Z,5.87
2023-02-12T16:53:41.873Z,5.81
2023-02-12T16:56:15.493Z,5.74
2023-02-12T16:58:43.569Z,5.84
2023-02-12T17:01:17.719Z,5.78
2023-02-12T17:03:47.742Z,5.78
2023-02-12T17:06:15.938Z,5.89
2023-02-12T17:08:45.611Z,5.72
2023-02-12T17:11:14.318Z,5.71
2023-02-12T17:13:42.929Z,5.78
2023-02-12T17:16:12.763Z,5.71
2023-02-12T17:18:42.733Z,5.71
2023-02-12T17:21:19.528Z,5.65
2023-02-12T17:23:48.822Z,5.58
2023-02-12T17:26:16.825Z,5.60
2023-02-12T17:28:44.752Z,5.71
2023-02-12T17:31:13.344Z,5.54
2023-02-12T17:33:41.244Z,5.56
2023-02-12T17:36:09.922Z,5.67
2023-02-12T17:38:37.922Z,5.73
2023-02-12T17:41:11.516Z,5.73
2023-02-12T17:43:39.648Z,5.77
2023-02-12T17:46:11.263Z,5.79
2023-02-12T17:48:40.452Z,5.75
2023-02-12T17:51:11.523Z,5.68
2023-02-12T17:53:39.769Z,5.69
2023-02-12T17:56:13.088Z,5.57
2023-02-12T17:58:41.476Z,5.38
2023-02-12T18:01:13.161Z,5.43
2023-02-12T18:03:41.636Z,5.48
2023-02-12T18:06:14.006Z,5.52
2023-02-12T18:08:42.442Z,5.55
2023-02-12T18:11:13.105Z,5.58
2023-02-12T18:13:42.628Z,5.64
2023-02-12T18:16:12.382Z,5.76
2023-02-12T18:18:41.429Z,5.55
2023-02-12T18:21:10.723Z,5.59
2023-02-12T18:23:39.115Z,5.43
2023-02-12T18:26:08.363Z,5.37
2023-02-12T18:28:38.483Z,5.46
2023-02-12T18:31:07.168Z,5.50
2023-02-12T18:33:36.070Z,5.54
2023-02-12T18:36:06.887Z,5.49
2023-02-12T18:38:35.313Z,5.52
2023-02-12T18:41:08.106Z,5.60
2023-02-12T18:43:37.532Z,5.67
2023-02-12T18:46:10.169Z,5.42
2023-02-12T18:48:38.458Z,5.38
2023-02-12T18:51:08.252Z,5.55
2023-02-12T18:53:36.421Z,5.64
2023-02-12T18:56:06.307Z,5.63
2023-02-12T18:58:34.530Z,5.63
2023-02-12T19:01:13.589Z,5.64
2023-02-12T19:03:41.628Z,5.52
2023-02-12T19:06:10.052Z,5.60
2023-02-12T19:08:38.274Z,5.58
2023-02-12T19:11:10.226Z,5.57
2023-02-12T19:13:38.936Z,5.64
2023-02-12T19:16:09.883Z,5.67
2023-02-12T19:18:37.806Z,5.57
2023-02-12T19:21:09.662Z,5.57
2023-02-12T19:23:37.915Z,5.58
2023-02-12T19:26:06.833Z,5.52
2023-02-12T19:28:35.769Z,5.63
2023-02-12T19:31:14.981Z,5.58
2023-02-12T19:33:44.604Z,5.71
2023-02-12T19:36:15.087Z,5.61
2023-02-12T19:38:43.222Z,5.61
2023-02-12T19:41:13.637Z,5.44
2023-02-12T19:43:42.093Z,5.55
2023-02-12T19:46:12.939Z,5.47
2023-02-12T19:48:41.532Z,5.52
2023-02-12T19:51:17.690Z,5.52
2023-02-12T19:53:45.997Z,5.52
2023-02-12T19:56:14.562Z,5.26
2023-02-12T19:58:43.266Z,5.38
2023-02-12T20:01:15.288Z,5.41
2023-02-12T20:03:43.430Z,5.23
2023-02-12T20:06:14.630Z,5.31
2023-02-12T20:08:44.247Z,5.23
2023-02-12T20:11:15.284Z,5.25
2023-02-12T20:13:44.134Z,5.24
2023-02-12T20:16:16.797Z,5.10
2023-02-12T20:18:45.826Z,5.13
2023-02-12T20:21:15.695Z,5.14
2023-02-12T20:23:44.766Z,5.06
2023-02-12T20:26:15.192Z,5.09
2023-02-12T20:28:43.976Z,5.16
2023-02-12T20:31:18.063Z,5.09
2023-02-12T20:33:46.750Z,4.99
2023-02-12T20:36:15.899Z,5.07
2023-02-12T20:38:44.921Z,5.07
2023-02-12T20:41:13.464Z,4.94
2023-02-12T20:43:41.370Z,5.07
2023-02-12T20:46:11.801Z,5.00
2023-02-12T20:48:42.079Z,4.81
2023-02-12T20:51:13.328Z,4.86
2023-02-12T20:53:41.853Z,4.85
2023-02-12T20:56:12.216Z,4.90
2023-02-12T20:58:41.671Z,4.69
2023-02-12T21:01:11.465Z,4.73
2023-02-12T21:03:41.447Z,4.69
2023-02-12T21:06:09.699Z,4.69
2023-02-12T21:08:38.055Z,4.60
2023-02-12T21:11:11.979Z,4.49
2023-02-12T21:13:40.222Z,4.59
2023-02-12T21:16:11.749Z,4.87
2023-02-12T21:18:41.100Z,4.91
2023-02-12T21:21:13.485Z,4.86
2023-02-12T21:23:41.853Z,4.98
2023-02-12T21:26:11.582Z,4.92
2023-02-12T21:28:39.812Z,4.82
2023-02-12T21:31:10.331Z,4.92
2023-02-12T21:33:38.624Z,5.01
2023-02-12T21:36:10.552Z,4.99
2023-02-12T21:38:40.328Z,5.02
2023-02-12T21:41:11.046Z,5.02
2023-02-12T21:43:39.992Z,5.05
2023-02-12T21:46:08.918Z,4.98
2023-02-12T21:48:38.989Z,4.94
2023-02-12T21:51:16.608Z,4.83
2023-02-12T21:53:44.573Z,4.56
2023-02-12T21:56:12.784Z,4.73
2023-02-12T21:58:40.802Z,4.73
2023-02-12T22:01:09.645Z,4.60
2023-02-12T22:03:38.565Z,4.60
2023-02-12T22:06:09.852Z,4.66
2023-02-12T22:08:38.363Z,4.67
2023-02-12T22:11:07.727Z,4.63
2023-02-12T22:13:36.153Z,4.65
2023-02-12T22:16:09.718Z,4.68
2023-02-12T22:18:37.816Z,4.73
2023-02-12T22:21:07.674Z,4.67
2023-02-12T22:23:37.946Z,4.57
2023-02-12T22:26:06.942Z,4.47
2023-02-12T22:28:35.332Z,4.44
2023-02-12T22:31:06.934Z,4.43
2023-02-12T22:33:35.161Z,4.35
2023-02-12T22:36:05.265Z,4.25
2023-02-12T22:38:34.785Z,4.35
2023-02-12T22:41:04.612Z,4.28
2023-02-12T22:43:33.769Z,4.25
2023-02-12T22:46:02.490Z,3.97
2023-02-12T22:48:30.490Z,3.89
2023-02-12T22:50:59.483Z,3.70
2023-02-12T22:53:27.947Z,3.65
2023-02-12T22:55:55.981Z,3.52
2023-02-12T22:58:25.362Z,3.53
2023-02-12T23:00:53.396Z,3.60
2023-02-12T23:03:21.465Z,3.81
2023-02-12T23:05:49.373Z,3.73
2023-02-12T23:08:17.295Z,3.80
2023-02-12T23:10:45.414Z,3.67
2023-02-12T23:13:24.665Z,3.92
2023-02-12T23:15:58.948Z,3.91
2023-02-12T23:18:27.707Z,3.99
2023-02-12T23:20:56.101Z,3.93
2023-02-12T23:23:24.421Z,3.72
2023-02-12T23:25:54.389Z,3.89
2023-02-12T23:28:22.847Z,3.83
2023-02-12T23:30:51.888Z,3.90
2023-02-12T23:33:21.719Z,3.96
2023-02-12T23:35:50.211Z,3.94
2023-02-12T23:38:18.498Z,3.80
2023-02-12T23:40:48.231Z,3.71
2023-02-12T23:43:16.216Z,3.74
2023-02-12T23:45:44.803Z,3.49
2023-02-12T23:48:13.624Z,3.52
2023-02-12T23:50:43.199Z,3.60
2023-02-12T23:53:11.406Z,3.32
2023-02-12T23:55:40.144Z,3.39
2023-02-12T23:58:08.751Z,3.25
